Terminal Aerodrome Forecast
Issued by NWS Bismarck, ND

Home | Current Version | Previous Version | Graphics & Text | Print | Product List | Glossary On
Versions: 1 2 3 4 5 6 7 8 9 10 11 12 13 14 15 16 17 18 19 20 21 22 23 24 25
000
FTUS43 KBIS 290103 AAA
TAFBIS
TAF AMD
KBIS 290103Z 2901/2924 34025G38KT P6SM VCSH BKN080
     FM290200 34018G26KT P6SM FEW100
     FM290300 34011KT P6SM SCT150
     FM290600 32005KT P6SM SCT130
     FM291200 31014KT P6SM BKN080
     FM292200 32018G27KT P6SM SCT080=

USA.gov is the U.S. government's official web portal to all federal, state and local government web resources and services.